Central Nebraska Regional Airport
KGRI : now visible

Aeroporto :











RITROVATECI SU...

 
LOGIN :

Iscrizione | Disclaimer

   EN    FR    IT 

 









Sommario :    VFR   VFR Marginale   IFR   IFR Intensivo   IFR Molto Intensivo
Visibilità : 
Base nubi : 
>= 8 km
>= 3000ft
5 / 8 km
1000 / 3000 ft
1500m / 5 km
500 / 1000 ft
800 / 1500m
200 / 500 ft
< 800m
< 200 ft
Simboli :   Temporali  Nebbia  Neve Forte  Precipitazioni Forti  Vento > 20 kt







- Altitudine del aeroporto : 1847 ft
- Codice IATA : GRI


KGRI - Central Nebraska Regional

ULTIMO METAR :
  • 210553Z AUTO 19015KT 10SM CLR 19/09 A2967 RMK AO2 SLP037 T01940094 10278 20194 403110083 51004

METARs OBSOLETI :
  • 210453Z AUTO 19016G23KT 10SM CLR 20/09 A2967 RMK AO2 SLP038 T02000094
  • 210353Z AUTO 19016KT 10SM CLR 21/08 A2967 RMK AO2 SLP037 T02110083

TAF KGRI
Valido dal 21 a 06 ore il 22 a 06 ore UTC


210520Z 2106/2206 19014G18KT P6SM FEW200 WS010/19048KT
FM211300 16010G14KT P6SM SCT150
FM220000 35011G17KT P6SM VCTS SCT060CB BKN150
FIR KZMP / America del Nord



MetMap, La meteo Aeronautica in un colpo d'occhio ! - Copyright ORBIFLY Dicembre 2007 - Disclaimer

ORBIFLY MET'MAP TEAM :

Programmazione e sviluppo : Alexandra Zaïnal
Concezione e sviluppo : Baudouin d'Aumeries
Co-Programmazione e sviluppo : Marc-Olivier Méhu
Supporto tecnico e logistico : Manuel Goepfert
Aiuto per la traduzione : Arnaldo La Scala

Contatto : metmap@orbifly.com




FONTI E CREDITI :

   NOAA       Earth
Advisory